sensor_id;sensor_type;location;lat;lon;timestamp;temperature;humidity
38239;DHT22;24035;48.900;9.188;2024-03-06T00:00:07;6.60;1.00
38239;DHT22;24035;48.900;9.188;2024-03-06T00:02:35;6.50;1.00
38239;DHT22;24035;48.900;9.188;2024-03-06T00:05:00;6.50;1.00
38239;DHT22;24035;48.900;9.188;2024-03-06T00:07:26;6.50;1.00
38239;DHT22;24035;48.900;9.188;2024-03-06T00:09:52;6.40;1.00
38239;DHT22;24035;48.900;9.188;2024-03-06T00:12:18;6.40;1.00
38239;DHT22;24035;48.900;9.188;2024-03-06T00:14:44;6.40;90.40
38239;DHT22;24035;48.900;9.188;2024-03-06T00:17:10;6.30;45.20
38239;DHT22;24035;48.900;9.188;2024-03-06T00:19:36;6.30;96.70
38239;DHT22;24035;48.900;9.188;2024-03-06T00:22:02;6.30;99.90
38239;DHT22;24035;48.900;9.188;2024-03-06T00:24:28;6.30;99.90
38239;DHT22;24035;48.900;9.188;2024-03-06T00:26:53;6.30;99.90
38239;DHT22;24035;48.900;9.188;2024-03-06T00:29:19;6.30;99.90
38239;DHT22;24035;48.900;9.188;2024-03-06T00:31:45;6.40;99.90
38239;DHT22;24035;48.900;9.188;2024-03-06T00:34:12;6.40;99.90
38239;DHT22;24035;48.900;9.188;2024-03-06T00:36:45;6.40;99.90
38239;DHT22;24035;48.900;9.188;2024-03-06T00:39:11;6.30;65.50
38239;DHT22;24035;48.900;9.188;2024-03-06T00:41:39;6.40;99.90
38239;DHT22;24035;48.900;9.188;2024-03-06T00:44:05;6.40;25.70
38239;DHT22;24035;48.900;9.188;2024-03-06T00:46:31;6.40;99.90
38239;DHT22;24035;48.900;9.188;2024-03-06T00:48:57;6.40;1.00
38239;DHT22;24035;48.900;9.188;2024-03-06T00:51:23;6.40;1.00
38239;DHT22;24035;48.900;9.188;2024-03-06T00:53:48;6.30;31.10
38239;DHT22;24035;48.900;9.188;2024-03-06T00:56:14;6.30;2.50
38239;DHT22;24035;48.900;9.188;2024-03-06T00:58:40;6.30;99.90
38239;DHT22;24035;48.900;9.188;2024-03-06T01:01:05;6.30;99.90
38239;DHT22;24035;48.900;9.188;2024-03-06T01:03:31;6.30;99.90
38239;DHT22;24035;48.900;9.188;2024-03-06T01:05:57;6.30;99.90
38239;DHT22;24035;48.900;9.188;2024-03-06T01:08:23;6.30;99.90
38239;DHT22;24035;48.900;9.188;2024-03-06T01:10:51;6.30;99.90
38239;DHT22;24035;48.900;9.188;2024-03-06T01:13:18;6.40;99.80
38239;DHT22;24035;48.900;9.188;2024-03-06T01:15:44;6.30;99.90
38239;DHT22;24035;48.900;9.188;2024-03-06T01:18:10;6.20;99.90
38239;DHT22;24035;48.900;9.188;2024-03-06T01:20:35;6.20;99.90
38239;DHT22;24035;48.900;9.188;2024-03-06T01:23:01;6.20;99.90
38239;DHT22;24035;48.900;9.188;2024-03-06T01:25:27;6.20;1.00
38239;DHT22;24035;48.900;9.188;2024-03-06T01:27:53;6.20;1.00
38239;DHT22;24035;48.900;9.188;2024-03-06T01:30:19;6.10;1.00
38239;DHT22;24035;48.900;9.188;2024-03-06T01:32:44;6.10;1.00
38239;DHT22;24035;48.900;9.188;2024-03-06T01:35:10;6.10;1.00
38239;DHT22;24035;48.900;9.188;2024-03-06T01:37:36;6.10;1.00
38239;DHT22;24035;48.900;9.188;2024-03-06T01:40:01;6.10;1.00
38239;DHT22;24035;48.900;9.188;2024-03-06T01:42:30;6.10;1.00
38239;DHT22;24035;48.900;9.188;2024-03-06T01:44:56;6.10;1.00
38239;DHT22;24035;48.900;9.188;2024-03-06T01:47:21;6.10;1.00
38239;DHT22;24035;48.900;9.188;2024-03-06T01:49:47;6.00;1.00
38239;DHT22;24035;48.900;9.188;2024-03-06T01:52:14;6.00;1.00
38239;DHT22;24035;48.900;9.188;2024-03-06T01:54:43;6.10;37.00
38239;DHT22;24035;48.900;9.188;2024-03-06T01:57:11;6.20;1.00
38239;DHT22;24035;48.900;9.188;2024-03-06T01:59:39;6.20;1.00
38239;DHT22;24035;48.900;9.188;2024-03-06T02:02:05;6.10;1.00
38239;DHT22;24035;48.900;9.188;2024-03-06T02:04:33;6.10;1.00
38239;DHT22;24035;48.900;9.188;2024-03-06T02:06:59;6.00;1.00
38239;DHT22;24035;48.900;9.188;2024-03-06T02:09:24;6.00;1.00
38239;DHT22;24035;48.900;9.188;2024-03-06T02:11:50;5.90;97.10
38239;DHT22;24035;48.900;9.188;2024-03-06T02:14:16;6.00;99.90
38239;DHT22;24035;48.900;9.188;2024-03-06T02:16:42;5.90;1.00
38239;DHT22;24035;48.900;9.188;2024-03-06T02:19:08;5.90;1.00
38239;DHT22;24035;48.900;9.188;2024-03-06T02:21:34;5.80;1.00
38239;DHT22;24035;48.900;9.188;2024-03-06T02:24:00;5.70;1.00
38239;DHT22;24035;48.900;9.188;2024-03-06T02:26:26;5.70;99.90
38239;DHT22;24035;48.900;9.188;2024-03-06T02:28:53;5.70;99.90
38239;DHT22;24035;48.900;9.188;2024-03-06T02:31:20;5.70;1.00
38239;DHT22;24035;48.900;9.188;2024-03-06T02:33:47;5.60;1.00
38239;DHT22;24035;48.900;9.188;2024-03-06T02:36:14;5.60;1.00
38239;DHT22;24035;48.900;9.188;2024-03-06T02:38:40;5.60;1.00
38239;DHT22;24035;48.900;9.188;2024-03-06T02:41:06;5.50;1.00
38239;DHT22;24035;48.900;9.188;2024-03-06T02:43:35;5.60;1.00
38239;DHT22;24035;48.900;9.188;2024-03-06T02:46:01;5.60;1.00
38239;DHT22;24035;48.900;9.188;2024-03-06T02:48:27;5.60;1.00
38239;DHT22;24035;48.900;9.188;2024-03-06T02:50:53;5.50;1.00
38239;DHT22;24035;48.900;9.188;2024-03-06T02:53:18;5.50;1.00
38239;DHT22;24035;48.900;9.188;2024-03-06T02:55:44;5.50;97.90
38239;DHT22;24035;48.900;9.188;2024-03-06T02:58:10;5.50;99.90
38239;DHT22;24035;48.900;9.188;2024-03-06T03:00:36;5.50;99.90
38239;DHT22;24035;48.900;9.188;2024-03-06T03:03:02;5.60;97.60
38239;DHT22;24035;48.900;9.188;2024-03-06T03:05:28;5.70;1.00
38239;DHT22;24035;48.900;9.188;2024-03-06T03:07:53;5.60;1.00
38239;DHT22;24035;48.900;9.188;2024-03-06T03:10:19;5.60;1.00
38239;DHT22;24035;48.900;9.188;2024-03-06T03:12:45;5.60;1.00
38239;DHT22;24035;48.900;9.188;2024-03-06T03:15:11;5.70;1.00
38239;DHT22;24035;48.900;9.188;2024-03-06T03:17:37;5.80;1.00
38239;DHT22;24035;48.900;9.188;2024-03-06T03:20:03;5.90;1.00
38239;DHT22;24035;48.900;9.188;2024-03-06T03:22:39;5.90;99.90
38239;DHT22;24035;48.900;9.188;2024-03-06T03:25:09;5.80;25.70
38239;DHT22;24035;48.900;9.188;2024-03-06T03:27:42;5.80;46.30
38239;DHT22;24035;48.900;9.188;2024-03-06T03:30:12;5.80;99.90
38239;DHT22;24035;48.900;9.188;2024-03-06T03:32:38;5.90;99.90
38239;DHT22;24035;48.900;9.188;2024-03-06T03:35:05;5.90;59.80
38239;DHT22;24035;48.900;9.188;2024-03-06T03:37:31;5.90;1.00
38239;DHT22;24035;48.900;9.188;2024-03-06T03:39:57;5.90;1.00
38239;DHT22;24035;48.900;9.188;2024-03-06T03:42:23;6.00;1.00
38239;DHT22;24035;48.900;9.188;2024-03-06T03:44:48;6.00;1.00
38239;DHT22;24035;48.900;9.188;2024-03-06T03:47:14;6.00;1.00
38239;DHT22;24035;48.900;9.188;2024-03-06T03:49:40;5.90;1.00
38239;DHT22;24035;48.900;9.188;2024-03-06T03:52:06;5.90;1.00
38239;DHT22;24035;48.900;9.188;2024-03-06T03:54:32;5.80;1.00
38239;DHT22;24035;48.900;9.188;2024-03-06T03:56:58;5.80;99.90
38239;DHT22;24035;48.900;9.188;2024-03-06T03:59:25;5.80;99.90
38239;DHT22;24035;48.900;9.188;2024-03-06T04:01:51;5.80;1.00
38239;DHT22;24035;48.900;9.188;2024-03-06T04:04:17;5.80;1.00
38239;DHT22;24035;48.900;9.188;2024-03-06T04:06:42;5.80;1.00
38239;DHT22;24035;48.900;9.188;2024-03-06T04:09:08;5.80;1.00
38239;DHT22;24035;48.900;9.188;2024-03-06T04:11:37;5.80;1.00
38239;DHT22;24035;48.900;9.188;2024-03-06T04:14:06;5.80;1.00
38239;DHT22;24035;48.900;9.188;2024-03-06T04:16:33;5.80;1.00
38239;DHT22;24035;48.900;9.188;2024-03-06T04:18:59;5.80;99.90
38239;DHT22;24035;48.900;9.188;2024-03-06T04:21:25;5.80;99.90
38239;DHT22;24035;48.900;9.188;2024-03-06T04:23:50;5.80;99.90
38239;DHT22;24035;48.900;9.188;2024-03-06T04:26:16;5.80;99.90
38239;DHT22;24035;48.900;9.188;2024-03-06T04:28:43;5.80;99.90
38239;DHT22;24035;48.900;9.188;2024-03-06T04:31:09;5.80;99.90
38239;DHT22;24035;48.900;9.188;2024-03-06T04:33:35;5.80;99.90
38239;DHT22;24035;48.900;9.188;2024-03-06T04:36:02;5.80;99.90
38239;DHT22;24035;48.900;9.188;2024-03-06T04:38:28;5.80;99.90
38239;DHT22;24035;48.900;9.188;2024-03-06T04:40:54;5.80;1.00
38239;DHT22;24035;48.900;9.188;2024-03-06T04:43:20;5.70;99.90
38239;DHT22;24035;48.900;9.188;2024-03-06T04:45:46;5.70;1.00
38239;DHT22;24035;48.900;9.188;2024-03-06T04:48:11;5.70;1.00
38239;DHT22;24035;48.900;9.188;2024-03-06T04:50:37;5.70;1.00
38239;DHT22;24035;48.900;9.188;2024-03-06T04:53:03;5.80;1.00
38239;DHT22;24035;48.900;9.188;2024-03-06T04:55:29;5.80;1.00
38239;DHT22;24035;48.900;9.188;2024-03-06T04:57:56;5.80;1.00
38239;DHT22;24035;48.900;9.188;2024-03-06T05:00:22;5.80;1.00
38239;DHT22;24035;48.900;9.188;2024-03-06T05:02:47;5.80;1.00
38239;DHT22;24035;48.900;9.188;2024-03-06T05:05:14;5.80;1.00
38239;DHT22;24035;48.900;9.188;2024-03-06T05:07:40;5.80;1.00
38239;DHT22;24035;48.900;9.188;2024-03-06T05:10:06;5.80;1.00
38239;DHT22;24035;48.900;9.188;2024-03-06T05:12:35;5.80;1.00
38239;DHT22;24035;48.900;9.188;2024-03-06T05:15:01;5.80;1.00
38239;DHT22;24035;48.900;9.188;2024-03-06T05:17:26;5.70;1.00
38239;DHT22;24035;48.900;9.188;2024-03-06T05:19:52;5.70;1.00
38239;DHT22;24035;48.900;9.188;2024-03-06T05:22:18;5.70;99.90
38239;DHT22;24035;48.900;9.188;2024-03-06T05:24:44;5.70;99.90
38239;DHT22;24035;48.900;9.188;2024-03-06T05:27:10;5.60;99.90
38239;DHT22;24035;48.900;9.188;2024-03-06T05:29:38;5.70;1.00
38239;DHT22;24035;48.900;9.188;2024-03-06T05:32:05;5.70;1.00
38239;DHT22;24035;48.900;9.188;2024-03-06T05:34:33;5.70;1.00
38239;DHT22;24035;48.900;9.188;2024-03-06T05:36:59;5.60;1.00
38239;DHT22;24035;48.900;9.188;2024-03-06T05:39:26;5.60;1.00
38239;DHT22;24035;48.900;9.188;2024-03-06T05:42:00;5.60;1.00
38239;DHT22;24035;48.900;9.188;2024-03-06T05:44:26;5.70;1.00
38239;DHT22;24035;48.900;9.188;2024-03-06T05:46:52;5.70;1.00
38239;DHT22;24035;48.900;9.188;2024-03-06T05:49:17;5.70;1.00
38239;DHT22;24035;48.900;9.188;2024-03-06T05:51:43;5.70;99.90
38239;DHT22;24035;48.900;9.188;2024-03-06T05:54:09;5.60;96.50
38239;DHT22;24035;48.900;9.188;2024-03-06T05:56:35;5.60;99.90
38239;DHT22;24035;48.900;9.188;2024-03-06T05:59:01;5.60;99.90
38239;DHT22;24035;48.900;9.188;2024-03-06T06:01:30;5.60;99.90
38239;DHT22;24035;48.900;9.188;2024-03-06T06:03:56;5.60;99.90
38239;DHT22;24035;48.900;9.188;2024-03-06T06:06:22;5.60;1.00
38239;DHT22;24035;48.900;9.188;2024-03-06T06:08:48;5.60;99.90
38239;DHT22;24035;48.900;9.188;2024-03-06T06:11:14;5.50;99.90
38239;DHT22;24035;48.900;9.188;2024-03-06T06:13:39;5.50;99.90
38239;DHT22;24035;48.900;9.188;2024-03-06T06:16:05;5.60;99.90
38239;DHT22;24035;48.900;9.188;2024-03-06T06:18:31;5.50;99.90
38239;DHT22;24035;48.900;9.188;2024-03-06T06:20:58;5.60;99.90
38239;DHT22;24035;48.900;9.188;2024-03-06T06:23:24;5.60;99.90
38239;DHT22;24035;48.900;9.188;2024-03-06T06:25:50;5.50;99.90
38239;DHT22;24035;48.900;9.188;2024-03-06T06:28:16;5.60;99.90
38239;DHT22;24035;48.900;9.188;2024-03-06T06:30:42;5.60;1.00
38239;DHT22;24035;48.900;9.188;2024-03-06T06:33:08;5.60;99.90
38239;DHT22;24035;48.900;9.188;2024-03-06T06:35:34;5.50;99.90
38239;DHT22;24035;48.900;9.188;2024-03-06T06:38:00;5.50;1.00
38239;DHT22;24035;48.900;9.188;2024-03-06T06:40:26;5.60;1.00
38239;DHT22;24035;48.900;9.188;2024-03-06T06:42:53;5.50;1.00
38239;DHT22;24035;48.900;9.188;2024-03-06T06:45:20;5.60;1.00
38239;DHT22;24035;48.900;9.188;2024-03-06T06:47:48;5.60;1.00
38239;DHT22;24035;48.900;9.188;2024-03-06T06:50:14;5.60;1.00
38239;DHT22;24035;48.900;9.188;2024-03-06T06:52:40;5.60;1.00
38239;DHT22;24035;48.900;9.188;2024-03-06T06:55:06;5.70;1.00
38239;DHT22;24035;48.900;9.188;2024-03-06T06:57:32;5.60;1.00
38239;DHT22;24035;48.900;9.188;2024-03-06T07:00:00;5.60;99.90
38239;DHT22;24035;48.900;9.188;2024-03-06T07:02:26;5.60;1.00
38239;DHT22;24035;48.900;9.188;2024-03-06T07:04:52;5.60;1.00
38239;DHT22;24035;48.900;9.188;2024-03-06T07:07:18;5.60;1.00
38239;DHT22;24035;48.900;9.188;2024-03-06T07:09:44;5.60;1.00
38239;DHT22;24035;48.900;9.188;2024-03-06T07:12:09;5.60;1.00
38239;DHT22;24035;48.900;9.188;2024-03-06T07:14:35;5.60;1.00
38239;DHT22;24035;48.900;9.188;2024-03-06T07:17:01;5.60;1.00
38239;DHT22;24035;48.900;9.188;2024-03-06T07:19:27;5.70;99.90
38239;DHT22;24035;48.900;9.188;2024-03-06T07:21:52;5.70;99.90
38239;DHT22;24035;48.900;9.188;2024-03-06T07:24:19;5.70;1.00
38239;DHT22;24035;48.900;9.188;2024-03-06T07:26:44;5.70;99.90
38239;DHT22;24035;48.900;9.188;2024-03-06T07:29:10;5.70;99.90
38239;DHT22;24035;48.900;9.188;2024-03-06T07:31:43;5.70;97.90
38239;DHT22;24035;48.900;9.188;2024-03-06T07:34:13;5.80;99.90
38239;DHT22;24035;48.900;9.188;2024-03-06T07:36:40;5.80;62.80
38239;DHT22;24035;48.900;9.188;2024-03-06T07:39:06;5.70;1.00
38239;DHT22;24035;48.900;9.188;2024-03-06T07:41:32;5.70;1.00
38239;DHT22;24035;48.900;9.188;2024-03-06T07:43:59;5.80;99.90
38239;DHT22;24035;48.900;9.188;2024-03-06T07:46:28;5.70;1.00
38239;DHT22;24035;48.900;9.188;2024-03-06T07:48:54;5.70;1.00
38239;DHT22;24035;48.900;9.188;2024-03-06T07:51:20;5.70;91.70
38239;DHT22;24035;48.900;9.188;2024-03-06T07:53:46;5.70;1.00
38239;DHT22;24035;48.900;9.188;2024-03-06T07:56:12;5.70;99.90
38239;DHT22;24035;48.900;9.188;2024-03-06T07:58:38;5.80;99.90
38239;DHT22;24035;48.900;9.188;2024-03-06T08:01:04;5.90;1.00
38239;DHT22;24035;48.900;9.188;2024-03-06T08:03:30;5.90;99.90
38239;DHT22;24035;48.900;9.188;2024-03-06T08:05:55;6.00;99.90
38239;DHT22;24035;48.900;9.188;2024-03-06T08:08:21;6.10;99.90
38239;DHT22;24035;48.900;9.188;2024-03-06T08:10:47;6.10;1.00
38239;DHT22;24035;48.900;9.188;2024-03-06T08:13:13;6.10;1.00
38239;DHT22;24035;48.900;9.188;2024-03-06T08:15:39;6.10;99.90
38239;DHT22;24035;48.900;9.188;2024-03-06T08:18:06;6.20;1.00
38239;DHT22;24035;48.900;9.188;2024-03-06T08:20:32;6.30;1.00
38239;DHT22;24035;48.900;9.188;2024-03-06T08:22:58;6.30;99.90
38239;DHT22;24035;48.900;9.188;2024-03-06T08:25:24;6.30;1.00
38239;DHT22;24035;48.900;9.188;2024-03-06T08:27:50;6.40;99.90
38239;DHT22;24035;48.900;9.188;2024-03-06T08:30:16;6.20;99.90
38239;DHT22;24035;48.900;9.188;2024-03-06T08:32:42;6.30;1.00
38239;DHT22;24035;48.900;9.188;2024-03-06T08:35:11;6.20;99.90
38239;DHT22;24035;48.900;9.188;2024-03-06T08:37:41;6.20;99.90
38239;DHT22;24035;48.900;9.188;2024-03-06T08:40:07;6.20;99.90
38239;DHT22;24035;48.900;9.188;2024-03-06T08:42:36;6.20;1.00
38239;DHT22;24035;48.900;9.188;2024-03-06T08:45:02;6.30;1.00
38239;DHT22;24035;48.900;9.188;2024-03-06T08:47:28;6.30;1.00
38239;DHT22;24035;48.900;9.188;2024-03-06T08:49:53;6.20;1.00
38239;DHT22;24035;48.900;9.188;2024-03-06T08:52:20;6.20;1.00
38239;DHT22;24035;48.900;9.188;2024-03-06T08:54:46;6.20;1.00
38239;DHT22;24035;48.900;9.188;2024-03-06T08:57:12;6.10;1.00
38239;DHT22;24035;48.900;9.188;2024-03-06T08:59:38;6.30;1.00
38239;DHT22;24035;48.900;9.188;2024-03-06T09:02:14;6.30;99.90
38239;DHT22;24035;48.900;9.188;2024-03-06T09:04:44;6.30;99.90
38239;DHT22;24035;48.900;9.188;2024-03-06T09:07:10;6.30;99.90
38239;DHT22;24035;48.900;9.188;2024-03-06T09:09:36;6.40;99.90
38239;DHT22;24035;48.900;9.188;2024-03-06T09:12:06;6.50;99.90
38239;DHT22;24035;48.900;9.188;2024-03-06T09:14:33;6.50;99.90
38239;DHT22;24035;48.900;9.188;2024-03-06T09:17:00;6.50;1.00
38239;DHT22;24035;48.900;9.188;2024-03-06T09:19:26;6.50;99.90
38239;DHT22;24035;48.900;9.188;2024-03-06T09:21:51;6.50;99.90
38239;DHT22;24035;48.900;9.188;2024-03-06T09:24:17;6.50;50.50
38239;DHT22;24035;48.900;9.188;2024-03-06T09:26:48;6.40;1.00
38239;DHT22;24035;48.900;9.188;2024-03-06T09:29:14;6.50;1.00
38239;DHT22;24035;48.900;9.188;2024-03-06T09:31:40;6.60;99.90
38239;DHT22;24035;48.900;9.188;2024-03-06T09:34:06;6.60;99.90
38239;DHT22;24035;48.900;9.188;2024-03-06T09:36:32;6.60;99.90
38239;DHT22;24035;48.900;9.188;2024-03-06T09:38:59;6.60;14.80
38239;DHT22;24035;48.900;9.188;2024-03-06T09:41:25;6.50;1.00
38239;DHT22;24035;48.900;9.188;2024-03-06T09:43:50;6.50;1.00
38239;DHT22;24035;48.900;9.188;2024-03-06T09:46:17;6.50;1.00
38239;DHT22;24035;48.900;9.188;2024-03-06T09:48:47;6.50;1.00
38239;DHT22;24035;48.900;9.188;2024-03-06T09:51:13;6.50;1.00
38239;DHT22;24035;48.900;9.188;2024-03-06T09:53:42;6.50;24.80
38239;DHT22;24035;48.900;9.188;2024-03-06T09:56:11;6.60;99.90
38239;DHT22;24035;48.900;9.188;2024-03-06T09:58:36;6.60;1.00
38239;DHT22;24035;48.900;9.188;2024-03-06T10:01:03;6.60;1.00
38239;DHT22;24035;48.900;9.188;2024-03-06T10:03:33;6.60;1.00
38239;DHT22;24035;48.900;9.188;2024-03-06T10:05:59;6.80;99.90
38239;DHT22;24035;48.900;9.188;2024-03-06T10:08:25;6.80;1.00
38239;DHT22;24035;48.900;9.188;2024-03-06T10:10:52;6.80;1.00
38239;DHT22;24035;48.900;9.188;2024-03-06T10:13:18;6.90;1.00
38239;DHT22;24035;48.900;9.188;2024-03-06T10:16:00;7.10;49.70
38239;DHT22;24035;48.900;9.188;2024-03-06T10:18:30;7.20;1.00
38239;DHT22;24035;48.900;9.188;2024-03-06T10:20:57;7.10;99.90
38239;DHT22;24035;48.900;9.188;2024-03-06T10:23:23;7.20;99.90
38239;DHT22;24035;48.900;9.188;2024-03-06T10:25:50;7.10;1.00
38239;DHT22;24035;48.900;9.188;2024-03-06T10:28:19;7.10;1.00
38239;DHT22;24035;48.900;9.188;2024-03-06T10:30:45;7.20;99.90
38239;DHT22;24035;48.900;9.188;2024-03-06T10:33:15;7.10;1.00
38239;DHT22;24035;48.900;9.188;2024-03-06T10:35:42;7.10;1.00
38239;DHT22;24035;48.900;9.188;2024-03-06T10:38:09;7.00;1.00
38239;DHT22;24035;48.900;9.188;2024-03-06T10:40:43;6.90;99.90
38239;DHT22;24035;48.900;9.188;2024-03-06T10:43:10;7.00;1.00
38239;DHT22;24035;48.900;9.188;2024-03-06T10:48:08;7.10;1.00
38239;DHT22;24035;48.900;9.188;2024-03-06T10:50:39;7.10;1.00
38239;DHT22;24035;48.900;9.188;2024-03-06T10:53:09;7.00;1.00
38239;DHT22;24035;48.900;9.188;2024-03-06T10:55:39;6.90;1.00
38239;DHT22;24035;48.900;9.188;2024-03-06T10:58:06;7.10;99.90
38239;DHT22;24035;48.900;9.188;2024-03-06T11:00:39;7.20;1.00
38239;DHT22;24035;48.900;9.188;2024-03-06T11:03:09;7.30;1.00
38239;DHT22;24035;48.900;9.188;2024-03-06T11:05:41;7.20;1.00
38239;DHT22;24035;48.900;9.188;2024-03-06T11:08:08;7.20;1.00
38239;DHT22;24035;48.900;9.188;2024-03-06T11:10:35;7.40;99.90
38239;DHT22;24035;48.900;9.188;2024-03-06T11:13:02;7.60;1.00
38239;DHT22;24035;48.900;9.188;2024-03-06T11:15:28;7.50;99.90
38239;DHT22;24035;48.900;9.188;2024-03-06T11:17:54;7.40;99.90
38239;DHT22;24035;48.900;9.188;2024-03-06T11:20:23;7.30;1.00
38239;DHT22;24035;48.900;9.188;2024-03-06T11:25:56;7.10;99.90
38239;DHT22;24035;48.900;9.188;2024-03-06T11:28:28;7.20;99.90
38239;DHT22;24035;48.900;9.188;2024-03-06T11:30:58;7.10;1.00
38239;DHT22;24035;48.900;9.188;2024-03-06T11:33:28;7.10;99.90
38239;DHT22;24035;48.900;9.188;2024-03-06T11:38:41;7.10;99.90
38239;DHT22;24035;48.900;9.188;2024-03-06T11:41:06;7.20;99.90
38239;DHT22;24035;48.900;9.188;2024-03-06T11:43:33;7.30;99.90
38239;DHT22;24035;48.900;9.188;2024-03-06T11:46:09;7.50;99.90
38239;DHT22;24035;48.900;9.188;2024-03-06T11:48:36;7.70;99.90
38239;DHT22;24035;48.900;9.188;2024-03-06T11:51:02;7.60;1.00
38239;DHT22;24035;48.900;9.188;2024-03-06T11:53:33;7.60;1.00
38239;DHT22;24035;48.900;9.188;2024-03-06T11:55:59;7.50;99.90
38239;DHT22;24035;48.900;9.188;2024-03-06T11:58:25;7.50;1.00
38239;DHT22;24035;48.900;9.188;2024-03-06T12:00:51;7.50;1.00
38239;DHT22;24035;48.900;9.188;2024-03-06T12:03:18;7.50;1.00
38239;DHT22;24035;48.900;9.188;2024-03-06T12:05:45;7.40;1.00
38239;DHT22;24035;48.900;9.188;2024-03-06T12:08:11;7.50;1.00
38239;DHT22;24035;48.900;9.188;2024-03-06T12:10:38;7.60;99.90
38239;DHT22;24035;48.900;9.188;2024-03-06T12:13:05;7.80;1.00
38239;DHT22;24035;48.900;9.188;2024-03-06T12:15:31;8.00;1.00
38239;DHT22;24035;48.900;9.188;2024-03-06T12:17:56;8.00;99.90
38239;DHT22;24035;48.900;9.188;2024-03-06T12:20:24;7.80;1.00
38239;DHT22;24035;48.900;9.188;2024-03-06T12:22:52;7.70;1.00
38239;DHT22;24035;48.900;9.188;2024-03-06T12:25:22;7.60;1.00
38239;DHT22;24035;48.900;9.188;2024-03-06T12:27:48;7.50;13.60
38239;DHT22;24035;48.900;9.188;2024-03-06T12:30:18;7.50;99.90
38239;DHT22;24035;48.900;9.188;2024-03-06T12:32:45;7.50;1.00
38239;DHT22;24035;48.900;9.188;2024-03-06T12:35:10;7.40;1.00
38239;DHT22;24035;48.900;9.188;2024-03-06T12:37:36;7.40;1.00
38239;DHT22;24035;48.900;9.188;2024-03-06T12:40:03;7.40;1.00
38239;DHT22;24035;48.900;9.188;2024-03-06T12:42:30;7.40;1.00
38239;DHT22;24035;48.900;9.188;2024-03-06T12:44:56;7.40;1.00
38239;DHT22;24035;48.900;9.188;2024-03-06T12:47:22;7.40;99.90
38239;DHT22;24035;48.900;9.188;2024-03-06T12:49:48;7.40;1.00
38239;DHT22;24035;48.900;9.188;2024-03-06T12:52:13;7.30;99.90
38239;DHT22;24035;48.900;9.188;2024-03-06T12:54:39;7.40;1.00
38239;DHT22;24035;48.900;9.188;2024-03-06T12:57:05;7.30;1.00
38239;DHT22;24035;48.900;9.188;2024-03-06T12:59:31;7.30;1.00
38239;DHT22;24035;48.900;9.188;2024-03-06T13:01:56;7.30;1.00
38239;DHT22;24035;48.900;9.188;2024-03-06T13:04:22;7.20;1.00
38239;DHT22;24035;48.900;9.188;2024-03-06T13:06:48;7.20;1.00
38239;DHT22;24035;48.900;9.188;2024-03-06T13:09:14;7.20;99.90
38239;DHT22;24035;48.900;9.188;2024-03-06T13:11:40;7.20;99.90
38239;DHT22;24035;48.900;9.188;2024-03-06T13:14:07;7.20;99.90
38239;DHT22;24035;48.900;9.188;2024-03-06T13:16:36;7.20;99.90
38239;DHT22;24035;48.900;9.188;2024-03-06T13:19:02;7.30;99.90
38239;DHT22;24035;48.900;9.188;2024-03-06T13:21:29;7.40;99.90
38239;DHT22;24035;48.900;9.188;2024-03-06T13:23:54;7.30;1.00
38239;DHT22;24035;48.900;9.188;2024-03-06T13:26:20;7.40;1.00
38239;DHT22;24035;48.900;9.188;2024-03-06T13:28:46;7.50;67.40
38239;DHT22;24035;48.900;9.188;2024-03-06T13:31:12;7.50;1.00
38239;DHT22;24035;48.900;9.188;2024-03-06T13:33:38;7.60;1.00
38239;DHT22;24035;48.900;9.188;2024-03-06T13:36:04;7.50;1.00
38239;DHT22;24035;48.900;9.188;2024-03-06T13:38:29;7.40;1.00
38239;DHT22;24035;48.900;9.188;2024-03-06T13:40:55;7.50;99.90
38239;DHT22;24035;48.900;9.188;2024-03-06T13:43:21;7.40;99.90
38239;DHT22;24035;48.900;9.188;2024-03-06T13:45:50;7.40;1.00
38239;DHT22;24035;48.900;9.188;2024-03-06T13:48:16;7.30;99.90
38239;DHT22;24035;48.900;9.188;2024-03-06T13:50:43;7.30;1.00
38239;DHT22;24035;48.900;9.188;2024-03-06T13:53:10;7.30;1.00
38239;DHT22;24035;48.900;9.188;2024-03-06T13:55:36;7.40;99.90
38239;DHT22;24035;48.900;9.188;2024-03-06T13:58:02;7.40;1.00
38239;DHT22;24035;48.900;9.188;2024-03-06T14:00:28;7.30;99.90
38239;DHT22;24035;48.900;9.188;2024-03-06T14:02:53;7.30;99.90
38239;DHT22;24035;48.900;9.188;2024-03-06T14:05:19;7.30;99.90
38239;DHT22;24035;48.900;9.188;2024-03-06T14:07:53;7.20;1.00
38239;DHT22;24035;48.900;9.188;2024-03-06T14:10:19;7.20;99.90
38239;DHT22;24035;48.900;9.188;2024-03-06T14:12:47;7.20;1.00
38239;DHT22;24035;48.900;9.188;2024-03-06T14:15:13;7.20;1.00
38239;DHT22;24035;48.900;9.188;2024-03-06T14:17:41;7.20;1.00
38239;DHT22;24035;48.900;9.188;2024-03-06T14:20:08;7.30;1.00
38239;DHT22;24035;48.900;9.188;2024-03-06T14:22:33;7.20;1.00
38239;DHT22;24035;48.900;9.188;2024-03-06T14:25:01;7.20;99.90
38239;DHT22;24035;48.900;9.188;2024-03-06T14:27:26;7.20;99.90
38239;DHT22;24035;48.900;9.188;2024-03-06T14:29:52;7.30;1.00
38239;DHT22;24035;48.900;9.188;2024-03-06T14:32:19;7.30;1.00
38239;DHT22;24035;48.900;9.188;2024-03-06T14:34:45;7.20;99.90
38239;DHT22;24035;48.900;9.188;2024-03-06T14:37:11;7.20;99.90
38239;DHT22;24035;48.900;9.188;2024-03-06T14:39:37;7.30;1.00
38239;DHT22;24035;48.900;9.188;2024-03-06T14:42:03;7.30;1.00
38239;DHT22;24035;48.900;9.188;2024-03-06T14:44:30;7.20;1.00
38239;DHT22;24035;48.900;9.188;2024-03-06T14:46:57;7.20;1.00
38239;DHT22;24035;48.900;9.188;2024-03-06T14:49:22;7.20;1.00
38239;DHT22;24035;48.900;9.188;2024-03-06T14:51:48;7.20;1.00
38239;DHT22;24035;48.900;9.188;2024-03-06T14:54:14;7.20;1.00
38239;DHT22;24035;48.900;9.188;2024-03-06T14:56:40;7.20;1.00
38239;DHT22;24035;48.900;9.188;2024-03-06T14:59:06;7.20;1.00
38239;DHT22;24035;48.900;9.188;2024-03-06T15:01:32;7.30;94.70
38239;DHT22;24035;48.900;9.188;2024-03-06T15:03:58;7.30;1.00
38239;DHT22;24035;48.900;9.188;2024-03-06T15:06:24;7.30;1.00
38239;DHT22;24035;48.900;9.188;2024-03-06T15:08:50;7.40;1.00
38239;DHT22;24035;48.900;9.188;2024-03-06T15:11:16;7.30;1.00
38239;DHT22;24035;48.900;9.188;2024-03-06T15:13:42;7.20;99.90
38239;DHT22;24035;48.900;9.188;2024-03-06T15:16:08;7.30;1.00
38239;DHT22;24035;48.900;9.188;2024-03-06T15:18:34;7.30;1.00
38239;DHT22;24035;48.900;9.188;2024-03-06T15:20:59;7.30;99.90
38239;DHT22;24035;48.900;9.188;2024-03-06T15:23:25;7.30;99.90
38239;DHT22;24035;48.900;9.188;2024-03-06T15:25:51;7.30;1.00
38239;DHT22;24035;48.900;9.188;2024-03-06T15:28:16;7.40;1.00
38239;DHT22;24035;48.900;9.188;2024-03-06T15:30:42;7.40;1.00
38239;DHT22;24035;48.900;9.188;2024-03-06T15:33:08;7.50;1.00
38239;DHT22;24035;48.900;9.188;2024-03-06T15:35:34;7.40;99.90
38239;DHT22;24035;48.900;9.188;2024-03-06T15:38:00;7.50;99.90
38239;DHT22;24035;48.900;9.188;2024-03-06T15:40:26;7.40;96.90
38239;DHT22;24035;48.900;9.188;2024-03-06T15:42:55;7.50;99.90
38239;DHT22;24035;48.900;9.188;2024-03-06T15:45:21;7.50;99.90
38239;DHT22;24035;48.900;9.188;2024-03-06T15:47:48;7.40;1.00
38239;DHT22;24035;48.900;9.188;2024-03-06T15:50:14;7.40;1.00
38239;DHT22;24035;48.900;9.188;2024-03-06T15:52:40;7.50;1.00
38239;DHT22;24035;48.900;9.188;2024-03-06T15:55:06;7.50;1.00
38239;DHT22;24035;48.900;9.188;2024-03-06T15:57:32;7.50;1.00